Aviation Digital Data Service (ADDS)

Output produced by METARs form (0212 UTC 11 December 2016)
found at http://aviationweather.gov/adds/metars/
 
KIAG 102341Z 1100/1124 27010KT P6SM SCT100 
     FM110500 25006KT P6SM BKN070 
     FM110800 23005KT P6SM BKN045 
     FM111400 19008KT P6SM VCSH OVC025 
     FM111800 17009KT 2SM -SN OVC015